createdAt,value
2018-10-11T00:02:03.917Z,31.23
2018-10-11T00:04:32.483Z,31.17
2018-10-11T00:07:01.048Z,30.37
2018-10-11T00:09:29.606Z,30.00
2018-10-11T00:11:58.206Z,30.00
2018-10-11T00:14:26.764Z,31.03
2018-10-11T00:16:55.331Z,28.93
2018-10-11T00:19:23.884Z,31.90
2018-10-11T00:21:52.460Z,31.73
2018-10-11T00:24:21.024Z,31.27
2018-10-11T00:26:49.584Z,30.23
2018-10-11T00:29:18.147Z,30.67
2018-10-11T00:31:46.719Z,31.93
2018-10-11T00:34:15.331Z,31.60
2018-10-11T00:36:43.883Z,33.10
2018-10-11T00:39:12.463Z,30.57
2018-10-11T00:41:41.044Z,30.97
2018-10-11T00:44:09.693Z,32.00
2018-10-11T00:46:38.263Z,32.00
2018-10-11T00:49:06.817Z,31.40
2018-10-11T00:51:35.404Z,30.60
2018-10-11T00:54:03.947Z,30.90
2018-10-11T00:56:32.495Z,30.30
2018-10-11T00:59:01.135Z,29.20
2018-10-11T01:01:29.711Z,32.73
2018-10-11T01:03:58.263Z,31.67
2018-10-11T01:06:26.843Z,32.30
2018-10-11T01:08:55.416Z,29.37
2018-10-11T01:11:24.033Z,31.20
2018-10-11T01:13:52.645Z,32.50
2018-10-11T01:16:21.236Z,32.03
2018-10-11T01:18:49.837Z,30.10
2018-10-11T01:21:18.420Z,33.40
2018-10-11T01:23:47.093Z,33.47
2018-10-11T01:26:15.597Z,31.50
2018-10-11T01:28:44.203Z,32.90
2018-10-11T01:31:18.379Z,32.53
2018-10-11T01:33:46.980Z,31.40
2018-10-11T01:36:15.576Z,32.73
2018-10-11T01:38:44.268Z,32.07
2018-10-11T01:41:13.115Z,31.20
2018-10-11T01:43:41.711Z,32.50
2018-10-11T01:46:10.327Z,32.80
2018-10-11T01:48:39.040Z,29.90
2018-10-11T01:51:07.640Z,30.90
2018-10-11T01:53:36.250Z,33.10
2018-10-11T01:56:04.835Z,31.87
2018-10-11T01:58:33.447Z,31.80
2018-10-11T02:01:02.058Z,32.00
2018-10-11T02:03:30.652Z,30.40
2018-10-11T02:05:59.285Z,32.50
2018-10-11T02:08:27.975Z,31.80
2018-10-11T02:10:56.631Z,32.20
2018-10-11T02:13:25.219Z,32.17
2018-10-11T02:15:53.804Z,32.70
2018-10-11T02:18:22.404Z,33.50
2018-10-11T02:20:50.994Z,33.00
2018-10-11T02:23:19.579Z,32.80
2018-10-11T02:25:48.172Z,32.50
2018-10-11T02:28:16.777Z,33.83
2018-10-11T02:30:45.363Z,35.77
2018-10-11T02:33:13.948Z,31.77
2018-10-11T02:35:42.555Z,32.50
2018-10-11T02:38:11.134Z,33.13
2018-10-11T02:40:39.728Z,33.43
2018-10-11T02:43:08.316Z,33.30
2018-10-11T02:45:36.911Z,33.83
2018-10-11T02:48:06.003Z,34.17
2018-10-11T02:50:34.592Z,33.10
2018-10-11T02:53:03.171Z,32.57
2018-10-11T02:55:31.759Z,32.90
2018-10-11T02:58:11.728Z,32.70
2018-10-11T03:00:40.323Z,31.97
2018-10-11T03:03:12.108Z,35.10
2018-10-11T03:05:42.060Z,34.00
2018-10-11T03:08:13.324Z,33.87
2018-10-11T03:10:42.071Z,34.10
2018-10-11T03:13:12.508Z,32.13
2018-10-11T03:15:41.727Z,33.30
2018-10-11T03:18:10.935Z,34.17
2018-10-11T03:20:40.563Z,32.00
2018-10-11T03:23:09.768Z,33.30
2018-10-11T03:25:38.340Z,32.47
2018-10-11T03:28:07.769Z,33.90
2018-10-11T03:30:36.337Z,32.50
2018-10-11T03:33:04.895Z,35.23
2018-10-11T03:35:33.470Z,33.10
2018-10-11T03:38:02.032Z,33.57
2018-10-11T03:40:30.597Z,34.70
2018-10-11T03:42:59.163Z,31.83
2018-10-11T03:45:27.735Z,34.57
2018-10-11T03:47:56.455Z,33.77
2018-10-11T03:50:25.587Z,34.90
2018-10-11T03:52:54.164Z,37.33
2018-10-11T03:55:22.732Z,36.40
2018-10-11T03:57:51.283Z,36.80
2018-10-11T04:00:19.926Z,37.17
2018-10-11T04:02:48.483Z,35.33
2018-10-11T04:05:17.043Z,36.40
2018-10-11T04:07:45.615Z,35.90
2018-10-11T04:10:14.204Z,36.70
2018-10-11T04:12:42.809Z,37.33
2018-10-11T04:15:11.403Z,36.10
2018-10-11T04:17:39.996Z,37.57
2018-10-11T04:20:08.608Z,35.20
2018-10-11T04:22:37.219Z,37.13
2018-10-11T04:25:05.803Z,36.43
2018-10-11T04:27:34.414Z,35.80
2018-10-11T04:30:03.040Z,37.07
2018-10-11T04:32:31.618Z,37.40
2018-10-11T04:35:00.420Z,35.20
2018-10-11T04:37:29.007Z,35.37
2018-10-11T04:39:57.591Z,36.67
2018-10-11T04:42:26.187Z,35.70
2018-10-11T04:44:54.771Z,37.00
2018-10-11T04:47:23.383Z,36.23
2018-10-11T04:49:51.980Z,36.10
2018-10-11T04:52:20.583Z,37.80
2018-10-11T04:54:49.168Z,33.83
2018-10-11T04:57:17.762Z,36.87
2018-10-11T04:59:46.418Z,36.27
2018-10-11T05:02:14.947Z,35.53
2018-10-11T05:04:43.555Z,37.00
2018-10-11T05:07:12.400Z,37.33
2018-10-11T05:09:41.020Z,36.23
2018-10-11T05:12:16.408Z,37.20
2018-10-11T05:14:45.007Z,35.73
2018-10-11T05:17:13.668Z,36.60
2018-10-11T05:19:42.212Z,35.57
2018-10-11T05:22:10.835Z,38.10
2018-10-11T05:24:39.499Z,34.93
2018-10-11T05:27:08.081Z,36.00
2018-10-11T05:29:36.689Z,36.30
2018-10-11T05:32:05.323Z,36.30
2018-10-11T05:34:33.884Z,36.30
2018-10-11T05:37:02.473Z,38.10
2018-10-11T05:39:31.088Z,38.90
2018-10-11T05:41:59.708Z,36.87
2018-10-11T05:44:28.584Z,37.23
2018-10-11T05:46:57.115Z,34.57
2018-10-11T05:49:25.704Z,36.70
2018-10-11T05:51:54.283Z,36.30
2018-10-11T05:54:22.900Z,36.30
2018-10-11T05:56:51.563Z,37.57
2018-10-11T05:59:20.071Z,38.27
2018-10-11T06:01:48.789Z,37.40
2018-10-11T06:04:17.427Z,36.40
2018-10-11T06:06:46.950Z,38.63
2018-10-11T06:09:15.590Z,36.03
2018-10-11T06:11:44.353Z,36.80
2018-10-11T06:14:13.536Z,34.70
2018-10-11T06:16:42.126Z,36.13
2018-10-11T06:19:12.652Z,32.90
2018-10-11T06:21:41.243Z,33.57
2018-10-11T06:24:09.852Z,31.47
2018-10-11T06:26:38.441Z,32.33
2018-10-11T06:29:07.143Z,32.47
2018-10-11T06:31:36.019Z,33.43
2018-10-11T06:34:04.604Z,34.10
2018-10-11T06:36:33.895Z,32.00
2018-10-11T06:39:02.788Z,31.20
2018-10-11T06:41:31.382Z,33.47
2018-10-11T06:43:59.981Z,36.20
2018-10-11T06:46:28.589Z,36.53
2018-10-11T06:48:57.263Z,37.80
2018-10-11T06:51:25.911Z,36.60
2018-10-11T06:53:54.508Z,36.47
2018-10-11T06:56:23.112Z,36.80
2018-10-11T06:58:51.695Z,40.47
2018-10-11T07:01:20.307Z,38.07
2018-10-11T07:03:48.911Z,36.50
2018-10-11T07:06:17.500Z,35.77
2018-10-11T07:08:46.097Z,37.00
2018-10-11T07:11:15.037Z,37.33
2018-10-11T07:13:43.970Z,34.87
2018-10-11T07:16:12.555Z,35.40
2018-10-11T07:18:41.351Z,37.00
2018-10-11T07:21:10.136Z,35.33
2018-10-11T07:23:38.711Z,34.53
2018-10-11T07:26:07.267Z,34.40
2018-10-11T07:28:35.892Z,33.03
2018-10-11T07:31:04.456Z,34.83
2018-10-11T07:33:33.016Z,33.13
2018-10-11T07:36:01.594Z,32.10
2018-10-11T07:38:30.153Z,31.00
2018-10-11T07:40:58.744Z,32.77
2018-10-11T07:43:27.279Z,33.27
2018-10-11T07:45:55.847Z,34.00
2018-10-11T07:48:24.411Z,32.73
2018-10-11T07:50:53.003Z,31.30
2018-10-11T07:53:21.583Z,32.33
2018-10-11T07:55:50.139Z,30.97
2018-10-11T07:58:25.499Z,30.97
2018-10-11T08:00:54.066Z,32.10
2018-10-11T08:03:22.649Z,30.43
2018-10-11T08:05:51.200Z,31.10
2018-10-11T08:08:19.791Z,32.17
2018-10-11T08:10:48.370Z,30.93
2018-10-11T08:13:16.908Z,31.37
2018-10-11T08:15:45.475Z,29.50
2018-10-11T08:18:14.063Z,30.63
2018-10-11T08:20:42.632Z,28.13
2018-10-11T08:23:11.195Z,30.53
2018-10-11T08:25:40.009Z,29.70
2018-10-11T08:28:08.395Z,29.03
2018-10-11T08:30:37.020Z,29.00
2018-10-11T08:33:05.772Z,27.50
2018-10-11T08:35:34.272Z,28.63
2018-10-11T08:38:03.103Z,28.30
2018-10-11T08:40:31.435Z,27.67
2018-10-11T08:43:00.000Z,25.80
2018-10-11T08:45:28.574Z,25.33
2018-10-11T08:47:57.136Z,27.33
2018-10-11T08:50:25.771Z,27.13
2018-10-11T08:52:54.266Z,25.40
2018-10-11T08:55:22.873Z,25.57
2018-10-11T08:57:51.399Z,25.23
2018-10-11T09:00:20.038Z,24.17
2018-10-11T09:02:48.589Z,25.43
2018-10-11T09:05:17.177Z,25.53
2018-10-11T09:07:45.731Z,26.93
2018-10-11T09:10:14.334Z,25.27
2018-10-11T09:12:43.028Z,27.03
2018-10-11T09:15:11.630Z,25.60
2018-10-11T09:17:40.219Z,26.40
2018-10-11T09:20:08.818Z,23.80
2018-10-11T09:22:37.432Z,26.03
2018-10-11T09:25:06.028Z,24.93
2018-10-11T09:27:34.645Z,25.17
2018-10-11T09:30:03.259Z,25.80
2018-10-11T09:32:31.859Z,25.70
2018-10-11T09:35:00.553Z,24.40
2018-10-11T09:37:29.147Z,23.00
2018-10-11T09:39:57.743Z,24.00
2018-10-11T09:42:26.378Z,23.00
2018-10-11T09:44:54.960Z,21.60
2018-10-11T09:47:23.555Z,20.00
2018-10-11T09:49:52.154Z,20.30
2018-10-11T09:52:20.771Z,19.17
2018-10-11T09:54:49.433Z,19.90
2018-10-11T09:57:21.084Z,17.90
2018-10-11T09:59:49.688Z,18.20
2018-10-11T10:02:18.287Z,19.00
2018-10-11T10:04:48.948Z,18.33
2018-10-11T10:07:17.528Z,15.57
2018-10-11T10:09:46.745Z,14.07
2018-10-11T10:12:15.793Z,13.37
2018-10-11T10:14:45.151Z,13.23
2018-10-11T10:17:13.743Z,13.33
2018-10-11T10:19:42.866Z,14.67
2018-10-11T10:22:11.489Z,12.60
2018-10-11T10:24:40.084Z,11.83
2018-10-11T10:27:08.815Z,11.33
2018-10-11T10:29:38.420Z,12.80
2018-10-11T10:32:07.388Z,11.73
2018-10-11T10:34:36.032Z,11.50
2018-10-11T10:37:04.706Z,11.77
2018-10-11T10:39:33.299Z,11.23
2018-10-11T10:42:01.891Z,11.33
2018-10-11T10:44:30.492Z,11.00
2018-10-11T10:46:59.108Z,10.63
2018-10-11T10:49:27.747Z,10.85
2018-10-11T10:51:56.359Z,10.35
2018-10-11T10:54:29.903Z,10.68
2018-10-11T10:56:59.063Z,10.95
2018-10-11T10:59:27.746Z,10.10
2018-10-11T11:04:55.500Z,11.15
2018-10-11T11:07:24.135Z,10.63
2018-10-11T11:09:52.666Z,9.33
2018-10-11T11:12:21.302Z,10.05
2018-10-11T11:14:49.919Z,8.38
2018-10-11T11:17:18.544Z,8.90
2018-10-11T11:19:47.152Z,10.28
2018-10-11T11:22:15.777Z,11.35
2018-10-11T11:24:44.367Z,10.00
2018-10-11T11:27:12.992Z,9.70
2018-10-11T11:29:41.600Z,9.68
2018-10-11T11:32:10.204Z,8.20
2018-10-11T11:34:38.804Z,6.47
2018-10-11T11:37:07.415Z,6.92
2018-10-11T11:39:36.008Z,7.15
2018-10-11T11:42:04.600Z,5.85
2018-10-11T11:44:33.211Z,6.30
2018-10-11T11:47:01.827Z,4.53
2018-10-11T11:49:30.431Z,4.87
2018-10-11T11:51:59.049Z,5.03
2018-10-11T11:54:27.653Z,5.30
2018-10-11T11:56:56.263Z,5.78
2018-10-11T11:59:35.884Z,4.83
2018-10-11T12:02:04.604Z,4.65
2018-10-11T12:04:33.196Z,4.47
2018-10-11T12:07:01.809Z,4.85
2018-10-11T12:09:30.406Z,4.83
2018-10-11T12:11:58.994Z,5.33
2018-10-11T12:14:27.583Z,4.95
2018-10-11T12:16:56.203Z,4.67
2018-10-11T12:19:24.810Z,4.78
2018-10-11T12:21:53.418Z,4.85
2018-10-11T12:24:22.020Z,4.90
2018-10-11T12:26:50.916Z,5.33
2018-10-11T12:29:19.548Z,4.20
2018-10-11T12:31:48.142Z,4.60
2018-10-11T12:34:16.746Z,4.67
2018-10-11T12:36:45.345Z,4.03
2018-10-11T12:39:13.935Z,4.45
2018-10-11T12:41:42.540Z,3.95
2018-10-11T12:44:11.166Z,4.72
2018-10-11T12:46:40.929Z,4.85
2018-10-11T12:49:08.410Z,4.92
2018-10-11T12:51:37.060Z,5.03
2018-10-11T12:54:05.607Z,5.00
2018-10-11T12:56:34.277Z,5.10
2018-10-11T12:59:02.823Z,4.67
2018-10-11T13:01:31.418Z,5.15
2018-10-11T13:04:00.028Z,5.03
2018-10-11T13:06:28.717Z,4.75
2018-10-11T13:08:57.322Z,4.97
2018-10-11T13:11:25.939Z,5.33
2018-10-11T13:13:54.556Z,4.80
2018-10-11T13:16:23.167Z,5.25
2018-10-11T13:18:51.777Z,5.25
2018-10-11T13:21:20.395Z,5.30
2018-10-11T13:23:48.995Z,5.08
2018-10-11T13:26:17.594Z,4.80
2018-10-11T13:28:46.209Z,5.58
2018-10-11T13:31:14.793Z,5.70
2018-10-11T13:33:43.403Z,5.22
2018-10-11T13:36:12.008Z,4.83
2018-10-11T13:38:41.492Z,5.05
2018-10-11T13:41:10.464Z,5.17
2018-10-11T13:43:39.043Z,5.10
2018-10-11T13:46:07.923Z,5.45
2018-10-11T13:48:36.500Z,4.97
2018-10-11T13:51:05.104Z,4.72
2018-10-11T13:53:33.708Z,4.40
2018-10-11T13:56:02.321Z,4.42
2018-10-11T13:58:30.923Z,5.60
2018-10-11T14:00:59.532Z,5.03
2018-10-11T14:03:28.145Z,5.00
2018-10-11T14:05:56.762Z,5.05
2018-10-11T14:08:25.367Z,5.60
2018-10-11T14:10:53.996Z,5.03
2018-10-11T14:13:22.597Z,5.15
2018-10-11T14:15:51.187Z,4.37
2018-10-11T14:18:19.801Z,4.87
2018-10-11T14:20:48.391Z,4.60
2018-10-11T14:23:16.997Z,5.45
2018-10-11T14:25:45.599Z,5.22
2018-10-11T14:28:14.195Z,4.62
2018-10-11T14:30:42.800Z,4.00
2018-10-11T14:33:11.419Z,4.85
2018-10-11T14:35:40.019Z,4.75
2018-10-11T14:38:08.750Z,5.08
2018-10-11T14:40:37.328Z,5.17
2018-10-11T14:43:06.128Z,5.03
2018-10-11T14:45:34.751Z,5.22
2018-10-11T14:48:03.420Z,5.28
2018-10-11T14:50:32.020Z,5.55
2018-10-11T14:53:00.636Z,5.08
2018-10-11T14:55:29.235Z,5.47
2018-10-11T14:57:57.882Z,5.70
2018-10-11T15:00:26.468Z,5.47
2018-10-11T15:02:55.147Z,5.17
2018-10-11T15:05:23.749Z,5.62
2018-10-11T15:07:52.286Z,5.70
2018-10-11T15:10:20.964Z,5.87
2018-10-11T15:12:49.521Z,5.80
2018-10-11T15:15:18.119Z,5.80
2018-10-11T15:17:46.834Z,5.70
2018-10-11T15:20:15.399Z,5.90
2018-10-11T15:22:43.997Z,6.17
2018-10-11T15:25:12.603Z,6.20
2018-10-11T15:27:41.219Z,6.17
2018-10-11T15:30:09.869Z,5.87
2018-10-11T15:32:38.478Z,5.80
2018-10-11T15:35:07.165Z,6.83
2018-10-11T15:37:35.743Z,6.00
2018-10-11T15:40:04.552Z,5.60
2018-10-11T15:42:33.180Z,5.90
2018-10-11T15:45:02.243Z,5.87
2018-10-11T15:47:30.875Z,6.20
2018-10-11T15:49:59.476Z,5.43
2018-10-11T15:52:28.165Z,6.70
2018-10-11T15:54:56.755Z,6.73
2018-10-11T15:57:25.407Z,7.37
2018-10-11T15:59:54.656Z,6.00
2018-10-11T16:02:23.385Z,6.80
2018-10-11T16:04:51.996Z,6.93
2018-10-11T16:07:20.614Z,7.10
2018-10-11T16:09:49.228Z,7.30
2018-10-11T16:12:17.842Z,7.50
2018-10-11T16:14:46.488Z,6.53
2018-10-11T16:17:15.082Z,5.33
2018-10-11T16:19:43.792Z,6.73
2018-10-11T16:22:12.398Z,7.13
2018-10-11T16:24:41.109Z,7.67
2018-10-11T16:27:09.676Z,6.90
2018-10-11T16:29:38.386Z,7.70
2018-10-11T16:32:07.008Z,8.40
2018-10-11T16:34:35.636Z,7.20
2018-10-11T16:37:04.287Z,8.47
2018-10-11T16:39:33.127Z,8.27
2018-10-11T16:42:01.757Z,8.80
2018-10-11T16:44:30.396Z,8.70
2018-10-11T16:46:59.040Z,9.40
2018-10-11T16:49:27.725Z,8.67
2018-10-11T16:51:56.299Z,7.90
2018-10-11T16:54:33.669Z,8.90
2018-10-11T16:57:02.395Z,8.17
2018-10-11T16:59:31.040Z,7.70
2018-10-11T17:01:59.720Z,8.17
2018-10-11T17:04:28.362Z,8.60
2018-10-11T17:06:56.920Z,8.53
2018-10-11T17:09:25.520Z,8.37
2018-10-11T17:11:54.143Z,8.50
2018-10-11T17:14:22.778Z,8.70
2018-10-11T17:16:51.769Z,8.10
2018-10-11T17:19:20.476Z,7.90
2018-10-11T17:21:49.096Z,8.07
2018-10-11T17:24:17.678Z,8.80
2018-10-11T17:26:46.284Z,8.20
2018-10-11T17:29:14.927Z,8.53
2018-10-11T17:31:43.721Z,9.10
2018-10-11T17:34:12.509Z,8.70
2018-10-11T17:36:41.313Z,9.37
2018-10-11T17:39:11.107Z,10.00
2018-10-11T17:41:40.332Z,9.73
2018-10-11T17:44:09.716Z,9.50
2018-10-11T17:46:38.381Z,10.70
2018-10-11T17:49:07.084Z,13.03
2018-10-11T17:51:35.707Z,11.60
2018-10-11T17:54:04.365Z,11.13
2018-10-11T17:56:33.333Z,11.83
2018-10-11T17:59:01.896Z,14.80
2018-10-11T18:01:30.572Z,16.33
2018-10-11T18:03:59.227Z,15.00
2018-10-11T18:06:27.863Z,15.83
2018-10-11T18:08:56.504Z,17.13
2018-10-11T18:11:25.340Z,13.07
2018-10-11T18:13:54.027Z,13.07
2018-10-11T18:16:22.639Z,11.17
2018-10-11T18:18:51.331Z,10.23
2018-10-11T18:21:19.991Z,10.20
2018-10-11T18:23:48.780Z,10.60
2018-10-11T18:26:17.393Z,9.33
2018-10-11T18:28:46.072Z,15.30
2018-10-11T18:31:14.747Z,11.30
2018-10-11T18:33:43.361Z,12.10
2018-10-11T18:36:12.163Z,14.90
2018-10-11T18:38:40.824Z,12.27
2018-10-11T18:41:09.535Z,11.57
2018-10-11T18:43:38.127Z,12.07
2018-10-11T18:46:06.902Z,11.97
2018-10-11T18:48:35.488Z,12.20
2018-10-11T18:51:04.176Z,12.03
2018-10-11T18:53:32.785Z,12.03
2018-10-11T18:56:01.409Z,12.37
2018-10-11T18:58:30.033Z,12.87
2018-10-11T19:00:58.659Z,12.13
2018-10-11T19:03:28.174Z,12.63
2018-10-11T19:05:56.793Z,14.30
2018-10-11T19:08:25.432Z,12.67
2018-10-11T19:10:54.387Z,13.23
2018-10-11T19:13:23.139Z,14.00
2018-10-11T19:15:51.785Z,13.37
2018-10-11T19:18:20.401Z,12.37
2018-10-11T19:20:49.080Z,13.67
2018-10-11T19:23:17.742Z,14.10
2018-10-11T19:25:46.640Z,13.30
2018-10-11T19:28:15.386Z,14.50
2018-10-11T19:30:44.009Z,16.00
2018-10-11T19:33:12.616Z,15.67
2018-10-11T19:35:41.260Z,14.93
2018-10-11T19:38:09.936Z,16.00
2018-10-11T19:40:38.616Z,16.07
2018-10-11T19:43:07.313Z,13.63
2018-10-11T19:45:35.955Z,14.67
2018-10-11T19:48:05.064Z,14.83
2018-10-11T19:50:33.943Z,16.57
2018-10-11T19:53:02.596Z,14.90
2018-10-11T19:55:31.227Z,15.73
2018-10-11T19:57:59.903Z,14.73
2018-10-11T20:00:28.561Z,15.90
2018-10-11T20:02:57.198Z,17.10
2018-10-11T20:05:25.847Z,17.20
2018-10-11T20:07:54.497Z,17.57
2018-10-11T20:10:23.117Z,16.97
2018-10-11T20:12:51.726Z,16.40
2018-10-11T20:15:20.356Z,17.20
2018-10-11T20:17:48.996Z,16.07
2018-10-11T20:20:17.641Z,15.73
2018-10-11T20:22:46.295Z,15.93
2018-10-11T20:25:14.904Z,15.47
2018-10-11T20:27:43.819Z,16.60
2018-10-11T20:30:12.431Z,16.07
2018-10-11T20:32:41.108Z,15.97
2018-10-11T20:35:09.736Z,14.70
2018-10-11T20:37:38.482Z,15.00
2018-10-11T20:40:07.092Z,14.80
2018-10-11T20:42:35.707Z,15.77
2018-10-11T20:45:04.540Z,18.27
2018-10-11T20:47:33.177Z,16.67
2018-10-11T20:50:01.828Z,16.07
2018-10-11T20:52:30.471Z,16.57
2018-10-11T20:54:59.091Z,16.60
2018-10-11T20:57:27.824Z,17.80
2018-10-11T20:59:56.372Z,16.20
2018-10-11T21:02:24.992Z,15.87
2018-10-11T21:04:53.713Z,17.27
2018-10-11T21:07:22.319Z,16.70
2018-10-11T21:09:52.128Z,16.50
2018-10-11T21:12:20.736Z,16.53
2018-10-11T21:14:49.893Z,15.40
2018-10-11T21:17:18.689Z,16.90
2018-10-11T21:19:47.517Z,17.90
2018-10-11T21:22:16.099Z,17.80
2018-10-11T21:24:44.809Z,18.20
2018-10-11T21:27:13.584Z,18.50
2018-10-11T21:29:42.383Z,18.37
2018-10-11T21:32:11.024Z,17.10
2018-10-11T21:37:14.820Z,17.33
2018-10-11T21:39:43.518Z,16.13
2018-10-11T21:42:19.521Z,17.90
2018-10-11T21:44:48.496Z,18.07
2018-10-11T21:47:17.375Z,17.40
2018-10-11T21:49:46.059Z,17.70
2018-10-11T21:52:14.856Z,17.73
2018-10-11T21:54:43.583Z,18.00
2018-10-11T21:57:12.248Z,16.87
2018-10-11T21:59:40.897Z,18.10
2018-10-11T22:02:09.855Z,17.90
2018-10-11T22:04:39.205Z,17.80
2018-10-11T22:07:08.087Z,17.27
2018-10-11T22:09:36.799Z,18.30
2018-10-11T22:12:05.500Z,18.53
2018-10-11T22:14:34.243Z,18.20
2018-10-11T22:17:04.960Z,18.40
2018-10-11T22:19:37.217Z,18.43
2018-10-11T22:22:06.199Z,18.40
2018-10-11T22:24:36.885Z,19.37
2018-10-11T22:27:05.739Z,18.07
2018-10-11T22:29:34.396Z,17.30
2018-10-11T22:32:03.146Z,18.93
2018-10-11T22:34:31.780Z,18.90
2018-10-11T22:37:02.173Z,18.97
2018-10-11T22:39:32.984Z,18.90
2018-10-11T22:42:01.580Z,19.10
2018-10-11T22:44:30.648Z,19.07
2018-10-11T22:47:00.041Z,20.43
2018-10-11T22:49:28.787Z,19.60
2018-10-11T22:51:57.392Z,18.77
2018-10-11T22:54:26.016Z,19.70
2018-10-11T22:56:54.795Z,19.90
2018-10-11T22:59:23.415Z,19.53
2018-10-11T23:01:52.087Z,20.17
2018-10-11T23:04:20.687Z,19.90
2018-10-11T23:06:49.395Z,19.50
2018-10-11T23:09:17.997Z,19.07
2018-10-11T23:11:46.757Z,19.70
2018-10-11T23:14:16.502Z,21.10
2018-10-11T23:16:45.339Z,19.80
2018-10-11T23:19:13.992Z,20.03
2018-10-11T23:21:42.711Z,19.10
2018-10-11T23:24:11.327Z,19.80
2018-10-11T23:26:40.015Z,19.73
2018-10-11T23:29:16.228Z,21.70
2018-10-11T23:31:45.044Z,19.57
2018-10-11T23:34:18.333Z,19.40
2018-10-11T23:36:47.094Z,20.97
2018-10-11T23:39:15.712Z,19.57
2018-10-11T23:41:44.358Z,20.77
2018-10-11T23:44:12.972Z,21.00
2018-10-11T23:46:41.632Z,20.53
2018-10-11T23:49:12.196Z,20.53
2018-10-11T23:51:42.716Z,20.03
2018-10-11T23:54:11.616Z,20.07
2018-10-11T23:56:40.223Z,19.80
2018-10-11T23:59:09.049Z,20.70
